createdAt,value
2019-06-15T00:02:13.615Z,19.55
2019-06-15T00:05:18.804Z,19.63
2019-06-15T00:08:26.033Z,19.65
2019-06-15T00:11:31.163Z,19.67
2019-06-15T00:14:36.386Z,19.71
2019-06-15T00:17:41.646Z,19.76
2019-06-15T00:20:46.885Z,19.74
2019-06-15T00:23:52.065Z,19.70
2019-06-15T00:26:57.294Z,19.66
2019-06-15T00:30:02.509Z,19.62
2019-06-15T00:33:07.824Z,19.65
2019-06-15T00:36:13.055Z,19.69
2019-06-15T00:39:18.211Z,19.65
2019-06-15T00:42:23.720Z,19.62
2019-06-15T00:45:28.915Z,19.75
2019-06-15T00:48:34.073Z,19.80
2019-06-15T00:51:39.254Z,19.77
2019-06-15T00:54:50.437Z,19.87
2019-06-15T00:57:51.411Z,19.92
2019-06-15T01:00:56.549Z,20.01
2019-06-15T01:04:01.713Z,19.99
2019-06-15T01:07:06.974Z,19.96
2019-06-15T01:10:12.513Z,19.56
2019-06-15T01:13:17.794Z,19.23
2019-06-15T01:16:22.966Z,18.96
2019-06-15T01:19:28.273Z,18.74
2019-06-15T01:22:33.518Z,18.66
2019-06-15T01:25:38.668Z,18.63
2019-06-15T01:28:43.866Z,18.53
2019-06-15T01:31:50.341Z,18.48
2019-06-15T01:34:55.696Z,18.46
2019-06-15T01:38:01.025Z,18.52
2019-06-15T01:41:06.245Z,18.37
2019-06-15T01:44:11.414Z,18.23
2019-06-15T01:47:16.570Z,18.05
2019-06-15T01:50:21.790Z,17.96
2019-06-15T01:53:26.975Z,17.83
2019-06-15T01:56:32.184Z,17.79
2019-06-15T01:59:37.305Z,17.76
2019-06-15T02:02:42.508Z,17.72
2019-06-15T02:05:47.631Z,17.68
2019-06-15T02:08:52.785Z,17.66
2019-06-15T02:11:58.380Z,17.67
2019-06-15T02:15:03.591Z,17.69
2019-06-15T02:18:08.820Z,17.68
2019-06-15T02:21:14.030Z,17.73
2019-06-15T02:24:19.260Z,17.70
2019-06-15T02:27:24.450Z,17.73
2019-06-15T02:30:31.711Z,17.73
2019-06-15T02:33:36.970Z,17.72
2019-06-15T02:36:42.161Z,17.72
2019-06-15T02:39:47.337Z,17.75
2019-06-15T02:42:52.669Z,17.74
2019-06-15T02:45:57.916Z,17.68
2019-06-15T02:49:04.625Z,17.66
2019-06-15T02:52:10.367Z,17.68
2019-06-15T02:55:16.155Z,17.67
2019-06-15T02:58:21.450Z,17.70
2019-06-15T03:01:26.718Z,17.73
2019-06-15T03:04:31.941Z,17.70
2019-06-15T03:07:37.336Z,17.67
2019-06-15T03:10:42.622Z,17.70
2019-06-15T03:13:48.321Z,17.65
2019-06-15T03:16:54.450Z,17.69
2019-06-15T03:19:59.616Z,17.65
2019-06-15T03:23:04.799Z,17.65
2019-06-15T03:26:09.981Z,17.62
2019-06-15T03:29:15.203Z,17.62
2019-06-15T03:32:20.472Z,17.65
2019-06-15T03:35:25.662Z,17.67
2019-06-15T03:38:30.851Z,17.70
2019-06-15T03:41:36.020Z,17.64
2019-06-15T03:44:42.375Z,17.65
2019-06-15T03:47:47.595Z,17.67
2019-06-15T03:50:52.843Z,17.66
2019-06-15T03:53:58.018Z,17.61
2019-06-15T03:57:03.324Z,17.56
2019-06-15T04:00:33.950Z,17.61
2019-06-15T04:03:39.124Z,17.70
2019-06-15T04:06:44.262Z,17.70
2019-06-15T04:09:50.291Z,17.72
2019-06-15T04:12:55.531Z,17.69
2019-06-15T04:16:00.651Z,17.63
2019-06-15T04:19:06.085Z,17.63
2019-06-15T04:22:11.321Z,17.60
2019-06-15T04:25:16.680Z,17.59
2019-06-15T04:28:21.957Z,17.58
2019-06-15T04:31:27.127Z,17.62
2019-06-15T04:34:32.310Z,17.64
2019-06-15T04:37:37.445Z,17.79
2019-06-15T04:40:42.651Z,17.94
2019-06-15T04:43:50.908Z,18.17
2019-06-15T04:46:54.680Z,18.62
2019-06-15T04:49:59.855Z,18.97
2019-06-15T04:53:05.043Z,19.32
2019-06-15T04:56:10.181Z,19.71
2019-06-15T04:59:15.366Z,19.79
2019-06-15T05:02:20.606Z,19.94
2019-06-15T05:05:25.798Z,19.72
2019-06-15T05:08:30.971Z,20.00
2019-06-15T05:11:36.330Z,20.19
2019-06-15T05:14:41.534Z,20.19
2019-06-15T05:17:46.727Z,20.33
2019-06-15T05:20:52.891Z,20.29
2019-06-15T05:23:59.117Z,20.37
2019-06-15T05:27:06.553Z,20.35
2019-06-15T05:30:12.091Z,20.77
2019-06-15T05:33:17.294Z,21.22
2019-06-15T05:36:22.456Z,21.35
2019-06-15T05:39:27.707Z,21.78
2019-06-15T05:42:32.969Z,22.48
2019-06-15T05:45:38.233Z,22.88
2019-06-15T05:48:44.546Z,23.71
2019-06-15T05:51:49.754Z,23.31
2019-06-15T05:54:55.042Z,24.41
2019-06-15T05:58:00.281Z,24.72
2019-06-15T06:01:07.831Z,24.91
2019-06-15T06:04:12.980Z,26.19
2019-06-15T06:07:18.196Z,25.83
2019-06-15T06:10:23.378Z,24.11
2019-06-15T06:13:28.589Z,23.31
2019-06-15T06:16:33.886Z,23.34
2019-06-15T06:19:39.126Z,22.91
2019-06-15T06:22:44.315Z,23.17
2019-06-15T06:25:49.489Z,22.64
2019-06-15T06:28:57.471Z,23.12
2019-06-15T06:32:01.597Z,22.97
2019-06-15T06:35:07.130Z,23.14
2019-06-15T06:38:12.293Z,23.03
2019-06-15T06:41:17.507Z,23.13
2019-06-15T06:44:22.703Z,22.86
2019-06-15T06:47:27.912Z,23.14
2019-06-15T06:50:33.199Z,22.83
2019-06-15T06:53:38.443Z,22.36
2019-06-15T06:56:43.725Z,22.52
2019-06-15T06:59:48.957Z,22.96
2019-06-15T07:02:54.153Z,22.92
2019-06-15T07:05:59.391Z,24.02
2019-06-15T07:09:05.612Z,25.16
2019-06-15T07:12:10.820Z,26.42
2019-06-15T07:15:16.223Z,25.95
2019-06-15T07:18:21.523Z,26.47
2019-06-15T07:21:26.732Z,27.22
2019-06-15T07:24:31.935Z,27.31
2019-06-15T07:27:37.252Z,27.15
2019-06-15T07:30:43.437Z,26.08
2019-06-15T07:33:48.655Z,26.25
2019-06-15T07:36:54.773Z,25.48
2019-06-15T07:40:00.046Z,25.78
2019-06-15T07:43:05.273Z,25.60
2019-06-15T07:46:10.587Z,26.63
2019-06-15T07:49:15.807Z,26.27
2019-06-15T07:52:21.017Z,26.42
2019-06-15T07:55:26.306Z,26.19
2019-06-15T07:58:31.472Z,27.24
2019-06-15T08:01:38.286Z,27.30
2019-06-15T08:04:44.483Z,26.54
2019-06-15T08:07:49.753Z,26.10
2019-06-15T08:10:55.054Z,25.23
2019-06-15T08:14:00.286Z,25.45
2019-06-15T08:17:05.586Z,25.03
2019-06-15T08:20:11.315Z,25.14
2019-06-15T08:23:16.548Z,25.04
2019-06-15T08:26:21.845Z,25.72
2019-06-15T08:29:26.993Z,26.41
2019-06-15T08:32:32.338Z,26.35
2019-06-15T08:35:37.493Z,25.39
2019-06-15T08:38:42.912Z,25.74
2019-06-15T08:41:48.139Z,25.80
2019-06-15T08:44:53.359Z,25.63
2019-06-15T08:47:58.537Z,25.69
2019-06-15T08:51:03.843Z,24.51
2019-06-15T08:54:09.057Z,24.61
2019-06-15T08:57:14.340Z,24.55
2019-06-15T09:00:19.759Z,24.30
2019-06-15T09:03:25.064Z,24.25
2019-06-15T09:06:30.339Z,24.36
2019-06-15T09:09:35.574Z,23.98
2019-06-15T09:12:42.491Z,23.80
2019-06-15T09:15:52.641Z,23.16
2019-06-15T09:18:57.896Z,22.82
2019-06-15T09:22:03.103Z,22.18
2019-06-15T09:25:08.659Z,22.19
2019-06-15T09:28:13.819Z,22.40
2019-06-15T09:31:19.028Z,22.69
2019-06-15T09:34:24.251Z,22.13
2019-06-15T09:37:29.477Z,22.10
2019-06-15T09:40:34.715Z,21.63
2019-06-15T09:43:39.939Z,20.96
2019-06-15T09:46:45.163Z,21.02
2019-06-15T09:49:50.386Z,21.44
2019-06-15T09:52:55.600Z,21.44
2019-06-15T09:56:00.818Z,21.31
2019-06-15T09:59:05.958Z,21.82
2019-06-15T10:02:11.152Z,22.72
2019-06-15T10:05:17.427Z,23.03
2019-06-15T10:08:22.667Z,23.35
2019-06-15T10:11:27.839Z,23.85
2019-06-15T10:14:35.508Z,23.35
2019-06-15T10:17:40.753Z,23.32
2019-06-15T10:20:45.959Z,22.39
2019-06-15T10:23:51.132Z,22.06
2019-06-15T10:26:57.332Z,21.90
2019-06-15T10:30:02.618Z,22.17
2019-06-15T10:33:08.064Z,22.16
2019-06-15T10:36:13.363Z,22.14
2019-06-15T10:39:18.589Z,22.09
2019-06-15T10:42:23.888Z,21.78
2019-06-15T10:45:29.171Z,22.22
2019-06-15T10:48:34.366Z,22.27
2019-06-15T10:51:39.602Z,22.17
2019-06-15T10:54:44.775Z,22.13
2019-06-15T10:57:50.950Z,22.02
2019-06-15T11:00:56.305Z,22.21
2019-06-15T11:04:01.556Z,21.91
2019-06-15T11:07:07.826Z,21.09
2019-06-15T11:10:14.886Z,21.19
2019-06-15T11:13:20.112Z,21.21
2019-06-15T11:16:26.481Z,21.16
2019-06-15T11:19:31.734Z,21.32
2019-06-15T11:22:36.948Z,21.85
2019-06-15T11:25:42.140Z,22.22
2019-06-15T11:28:47.388Z,22.78
2019-06-15T11:31:52.595Z,22.69
2019-06-15T11:34:57.789Z,22.99
2019-06-15T11:38:03.037Z,22.25
2019-06-15T11:41:08.202Z,21.62
2019-06-15T11:44:13.427Z,22.32
2019-06-15T11:47:18.639Z,22.94
2019-06-15T11:50:23.868Z,23.51
2019-06-15T11:53:29.067Z,23.73
2019-06-15T11:56:34.274Z,23.49
2019-06-15T11:59:39.521Z,23.08
2019-06-15T12:02:44.824Z,23.67
2019-06-15T12:05:50.003Z,23.42
2019-06-15T12:08:55.253Z,24.25
2019-06-15T12:12:00.438Z,23.94
2019-06-15T12:15:05.802Z,23.89
2019-06-15T12:18:10.989Z,23.86
2019-06-15T12:21:16.177Z,23.35
2019-06-15T12:24:21.455Z,23.23
2019-06-15T12:27:26.624Z,23.02
2019-06-15T12:30:46.854Z,23.22
2019-06-15T12:33:44.448Z,23.38
2019-06-15T12:36:49.671Z,23.79
2019-06-15T12:39:54.939Z,23.53
2019-06-15T12:43:00.174Z,22.94
2019-06-15T12:46:05.376Z,22.48
2019-06-15T12:49:10.678Z,21.84
2019-06-15T12:52:15.874Z,21.96
2019-06-15T12:55:21.142Z,21.94
2019-06-15T12:58:26.347Z,21.48
2019-06-15T13:01:31.493Z,21.70
2019-06-15T13:04:36.836Z,21.75
2019-06-15T13:07:42.030Z,22.11
2019-06-15T13:10:47.250Z,22.44
2019-06-15T13:13:52.495Z,22.88
2019-06-15T13:16:57.732Z,23.38
2019-06-15T13:20:05.116Z,23.75
2019-06-15T13:23:13.473Z,24.14
2019-06-15T13:26:18.748Z,23.47
2019-06-15T13:29:24.244Z,23.30
2019-06-15T13:32:29.420Z,22.27
2019-06-15T13:35:34.819Z,22.05
2019-06-15T13:38:40.117Z,22.87
2019-06-15T13:41:45.433Z,23.11
2019-06-15T13:44:50.980Z,23.21
2019-06-15T13:47:56.250Z,23.71
2019-06-15T13:51:01.503Z,23.30
2019-06-15T13:54:06.988Z,23.89
2019-06-15T13:57:12.363Z,23.60
2019-06-15T14:00:18.916Z,23.06
2019-06-15T14:03:24.090Z,23.17
2019-06-15T14:06:29.355Z,23.34
2019-06-15T14:09:34.718Z,23.50
2019-06-15T14:12:39.917Z,23.68
2019-06-15T14:15:47.453Z,23.55
2019-06-15T14:18:52.686Z,22.68
2019-06-15T14:21:58.110Z,22.85
2019-06-15T14:25:03.427Z,22.66
2019-06-15T14:28:08.665Z,22.53
2019-06-15T14:31:13.910Z,22.94
2019-06-15T14:34:19.121Z,23.09
2019-06-15T14:37:24.420Z,23.30
2019-06-15T14:40:29.759Z,22.93
2019-06-15T14:43:35.041Z,22.79
2019-06-15T14:46:40.269Z,22.62
2019-06-15T14:49:45.501Z,22.68
2019-06-15T14:52:50.676Z,22.48
2019-06-15T14:55:56.519Z,22.53
2019-06-15T14:59:01.930Z,22.63
2019-06-15T15:02:13.700Z,22.38
2019-06-15T15:05:17.666Z,22.55
2019-06-15T15:08:26.203Z,22.87
2019-06-15T15:11:30.495Z,22.73
2019-06-15T15:14:36.531Z,22.35
2019-06-15T15:17:41.838Z,22.33
2019-06-15T15:20:46.995Z,22.46
2019-06-15T15:23:52.210Z,22.14
2019-06-15T15:26:57.440Z,22.43
2019-06-15T15:30:02.624Z,22.58
2019-06-15T15:33:08.050Z,22.64
2019-06-15T15:36:13.291Z,22.70
2019-06-15T15:39:18.475Z,23.03
2019-06-15T15:42:26.386Z,22.77
2019-06-15T15:45:30.450Z,22.69
2019-06-15T15:48:36.352Z,22.97
2019-06-15T15:51:41.639Z,22.81
2019-06-15T15:54:46.932Z,22.84
2019-06-15T15:57:52.170Z,22.87
2019-06-15T16:00:57.418Z,22.90
2019-06-15T16:04:02.627Z,22.25
2019-06-15T16:07:07.904Z,22.79
2019-06-15T16:10:13.232Z,22.84
2019-06-15T16:13:21.556Z,23.08
2019-06-15T16:16:26.906Z,23.16
2019-06-15T16:19:32.182Z,22.86
2019-06-15T16:22:37.320Z,22.99
2019-06-15T16:25:42.529Z,23.11
2019-06-15T16:28:47.706Z,22.86
2019-06-15T16:31:52.962Z,22.80
2019-06-15T16:34:58.269Z,22.62
2019-06-15T16:38:03.456Z,22.64
2019-06-15T16:41:08.650Z,22.64
2019-06-15T16:44:13.877Z,22.94
2019-06-15T16:47:19.062Z,22.78
2019-06-15T16:50:26.469Z,22.85
2019-06-15T16:53:31.128Z,22.84
2019-06-15T16:56:36.361Z,22.81
2019-06-15T16:59:41.586Z,22.66
2019-06-15T17:02:47.000Z,22.60
2019-06-15T17:05:52.301Z,22.66
2019-06-15T17:08:57.464Z,22.60
2019-06-15T17:12:06.409Z,22.47
2019-06-15T17:15:11.815Z,22.31
2019-06-15T17:18:16.990Z,22.41
2019-06-15T17:21:22.152Z,22.36
2019-06-15T17:24:27.336Z,22.50
2019-06-15T17:27:32.509Z,22.51
2019-06-15T17:30:37.653Z,22.54
2019-06-15T17:33:42.934Z,22.46
2019-06-15T17:36:48.250Z,22.20
2019-06-15T17:39:56.171Z,22.43
2019-06-15T17:43:01.727Z,22.55
2019-06-15T17:46:07.984Z,22.71
2019-06-15T17:49:13.221Z,22.50
2019-06-15T17:52:18.440Z,22.82
2019-06-15T17:55:23.590Z,23.11
2019-06-15T17:58:28.770Z,22.84
2019-06-15T18:01:36.288Z,22.50
2019-06-15T18:04:40.841Z,21.94
2019-06-15T18:07:46.957Z,21.59
2019-06-15T18:10:52.295Z,21.61
2019-06-15T18:13:57.497Z,21.51
2019-06-15T18:17:02.651Z,21.14
2019-06-15T18:20:07.841Z,20.91
2019-06-15T18:23:13.055Z,20.79
2019-06-15T18:26:18.289Z,20.72
2019-06-15T18:29:26.292Z,20.60
2019-06-15T18:32:31.699Z,20.27
2019-06-15T18:35:36.896Z,20.18
2019-06-15T18:38:42.106Z,20.16
2019-06-15T18:41:47.286Z,20.14
2019-06-15T18:45:08.170Z,20.10
2019-06-15T18:48:06.258Z,19.99
2019-06-15T18:51:11.751Z,19.84
2019-06-15T18:54:16.994Z,19.76
2019-06-15T18:57:22.177Z,19.84
2019-06-15T19:00:27.420Z,19.70
2019-06-15T19:03:32.616Z,19.43
2019-06-15T19:06:37.856Z,19.45
2019-06-15T19:09:43.098Z,19.33
2019-06-15T19:12:48.331Z,19.23
2019-06-15T19:15:57.322Z,19.18
2019-06-15T19:19:02.934Z,19.17
2019-06-15T19:22:08.229Z,19.15
2019-06-15T19:25:16.181Z,19.13
2019-06-15T19:28:21.464Z,19.22
2019-06-15T19:31:28.530Z,19.21
2019-06-15T19:34:46.287Z,19.08
2019-06-15T19:37:40.772Z,19.02
2019-06-15T19:40:46.215Z,18.80
2019-06-15T19:43:51.622Z,18.70
2019-06-15T19:47:00.230Z,18.55
2019-06-15T19:50:06.676Z,18.38
2019-06-15T19:53:10.769Z,18.24
2019-06-15T19:56:15.974Z,18.17
2019-06-15T19:59:21.301Z,18.08
2019-06-15T20:02:26.981Z,17.92
2019-06-15T20:05:32.474Z,17.76
2019-06-15T20:08:37.742Z,17.63
2019-06-15T20:11:46.670Z,17.49
2019-06-15T20:14:51.226Z,17.47
2019-06-15T20:17:57.091Z,17.21
2019-06-15T20:21:03.395Z,17.13
2019-06-15T20:24:09.016Z,16.95
2019-06-15T20:27:16.413Z,16.84
2019-06-15T20:30:21.674Z,16.79
2019-06-15T20:33:26.926Z,16.79
2019-06-15T20:36:32.302Z,16.72
2019-06-15T20:39:37.596Z,16.88
2019-06-15T20:42:42.898Z,16.89
2019-06-15T20:45:48.802Z,16.70
2019-06-15T20:48:56.533Z,16.58
2019-06-15T20:52:01.619Z,16.51
2019-06-15T20:55:07.330Z,16.49
2019-06-15T20:58:16.854Z,16.56
2019-06-15T21:01:20.492Z,16.67
2019-06-15T21:04:27.351Z,16.49
2019-06-15T21:07:32.572Z,16.49
2019-06-15T21:10:38.750Z,16.65
2019-06-15T21:13:46.711Z,16.75
2019-06-15T21:16:50.950Z,16.86
2019-06-15T21:19:56.216Z,16.82
2019-06-15T21:23:01.432Z,16.58
2019-06-15T21:26:09.676Z,16.31
2019-06-15T21:29:16.711Z,16.39
2019-06-15T21:32:21.864Z,16.43
2019-06-15T21:35:27.087Z,16.22
2019-06-15T21:38:38.757Z,16.19
2019-06-15T21:41:40.290Z,16.03
2019-06-15T21:44:46.993Z,15.98
2019-06-15T21:47:52.412Z,15.85
2019-06-15T21:50:59.588Z,15.77
2019-06-15T21:54:06.707Z,15.83
2019-06-15T21:57:11.380Z,15.72
2019-06-15T22:00:21.213Z,15.61
2019-06-15T22:03:28.113Z,15.56
2019-06-15T22:06:33.515Z,15.49
2019-06-15T22:09:38.656Z,15.43
2019-06-15T22:12:46.276Z,15.47
2019-06-15T22:15:51.597Z,15.42
2019-06-15T22:18:57.061Z,15.40
2019-06-15T22:22:03.380Z,15.33
2019-06-15T22:25:09.210Z,15.31
2019-06-15T22:28:16.456Z,15.25
2019-06-15T22:31:21.353Z,15.15
2019-06-15T22:34:26.597Z,15.09
2019-06-15T22:37:31.813Z,15.01
2019-06-15T22:40:37.016Z,15.06
2019-06-15T22:43:42.171Z,15.00
2019-06-15T22:46:47.445Z,14.89
2019-06-15T22:49:52.688Z,14.87
2019-06-15T22:52:57.869Z,14.88
2019-06-15T22:56:03.202Z,14.86
2019-06-15T22:59:08.352Z,14.77
2019-06-15T23:02:13.688Z,14.64
2019-06-15T23:05:18.942Z,14.65
2019-06-15T23:08:26.846Z,14.63
2019-06-15T23:11:32.095Z,14.58
2019-06-15T23:14:37.362Z,14.57
2019-06-15T23:17:42.625Z,14.56
2019-06-15T23:20:47.890Z,14.51
2019-06-15T23:23:53.180Z,14.47
2019-06-15T23:26:58.427Z,14.54
2019-06-15T23:30:03.735Z,14.47
2019-06-15T23:33:09.039Z,14.53
2019-06-15T23:36:18.908Z,14.55
2019-06-15T23:39:26.873Z,14.54
2019-06-15T23:42:31.276Z,14.52
2019-06-15T23:45:36.528Z,14.48
2019-06-15T23:48:41.746Z,14.39
2019-06-15T23:51:46.975Z,14.36
2019-06-15T23:54:52.123Z,14.43
2019-06-15T23:57:57.384Z,14.39
